This is the latest recevied weather packets stored in our database for station/object K4ROM-1. If no packets are shown the sender has not sent any weather packets the latest 10 day(s).
| Time | Temp. | Humidity | Pressure | Rain* | Wind** | Luminosity | Snow |
|---|---|---|---|---|---|---|---|
| 1777537203 | 17.22° C | 82% | 1010.3 hPa | 0 mm | 0 m/s | - | - |
| 1777536603 | 17.78° C | 82% | 1010.1 hPa | 0 mm | 0.45 m/s, 324° | - | - |
| 1777536003 | 17.22° C | 82% | 1009.8 hPa | 0 mm | 0 m/s | - | - |
| 1777535403 | 17.22° C | 84% | 1009.8 hPa | 0 mm | 0 m/s | - | - |
| 1777534803 | 17.22° C | 83% | 1009.4 hPa | 0 mm | 0 m/s | - | - |
| 1777534204 | 17.78° C | 81% | 1009.6 hPa | 0 mm | 0 m/s | - | - |
| 1777533603 | 17.78° C | 83% | 1009.3 hPa | 0 mm | 0 m/s | - | - |
| 1777533004 | 17.78° C | 83% | 1009.4 hPa | 0 mm | 0 m/s | - | - |
| 1777532403 | 17.78° C | 84% | 1009.2 hPa | 0 mm | 0.45 m/s, 295° | - | - |
| 1777531803 | 17.78° C | 86% | 1009.4 hPa | 0 mm | 0 m/s | - | - |
| 1777531203 | 17.78° C | 87% | 1009.4 hPa | 0 mm | 0.45 m/s, 32° | - | - |
| 1777530603 | 17.78° C | 88% | 1009.7 hPa | 0 mm | 0.45 m/s, 29° | - | - |
| 1777530003 | 18.33° C | 88% | 1009.7 hPa | 0 mm | 0.45 m/s, 323° | - | - |
| 1777529403 | 18.33° C | 88% | 1010.1 hPa | 0 mm | 0.45 m/s, 300° | - | - |
| 1777528803 | 18.89° C | 86% | 1009.9 hPa | 0 mm | 0 m/s | - | - |
| 1777528203 | 18.89° C | 87% | 1010.2 hPa | 0 mm | 0 m/s | - | - |
| 1777527603 | 18.89° C | 88% | 1010.5 hPa | 0 mm | 0 m/s | - | - |
| 1777527003 | 18.33° C | 91% | 1010.5 hPa | 0 mm | 0.45 m/s, 296° | - | - |
| 1777526403 | 17.78° C | 95% | 1010.5 hPa | 0 mm | 0 m/s | - | - |
| 1777525803 | 18.33° C | 92% | 1010.7 hPa | 0 mm | 0 m/s | - | - |
| 1777525203 | 17.78° C | 95% | 1010.9 hPa | 0 mm | 0 m/s | - | - |
| 1777524603 | 18.89° C | 93% | 1010.6 hPa | 0 mm | 0.45 m/s, 243° | - | - |
| 1777524003 | 18.89° C | 89% | 1010.4 hPa | 0 mm | 0 m/s | - | - |
| 1777523403 | 18.89° C | 89% | 1010.4 hPa | 0 mm | 0 m/s | - | - |
| 1777522803 | 18.89° C | 91% | 1010.4 hPa | 0 mm | 0 m/s | - | - |
* Rain latest hour (hover to see other rain measurements)
** Current wind speed in m/s (hover to see current wind gust speed)